sensor_id;sensor_type;location;lat;lon;timestamp;P1;durP1;ratioP1;P2;durP2;ratioP2
75885;SDS011;64561;44.018;10.144;2023-12-07T00:01:12;14.05;;;9.30;;
75885;SDS011;64561;44.018;10.144;2023-12-07T00:03:40;15.57;;;8.80;;
75885;SDS011;64561;44.018;10.144;2023-12-07T00:06:07;13.85;;;8.88;;
75885;SDS011;64561;44.018;10.144;2023-12-07T00:08:35;13.07;;;8.05;;
75885;SDS011;64561;44.018;10.144;2023-12-07T00:11:02;15.35;;;9.00;;
75885;SDS011;64561;44.018;10.144;2023-12-07T00:13:29;13.70;;;8.75;;
75885;SDS011;64561;44.018;10.144;2023-12-07T00:15:57;12.13;;;8.45;;
75885;SDS011;64561;44.018;10.144;2023-12-07T00:18:24;15.40;;;8.57;;
75885;SDS011;64561;44.018;10.144;2023-12-07T00:20:51;14.80;;;8.98;;
75885;SDS011;64561;44.018;10.144;2023-12-07T00:23:18;15.80;;;9.18;;
75885;SDS011;64561;44.018;10.144;2023-12-07T00:25:46;18.33;;;9.45;;
75885;SDS011;64561;44.018;10.144;2023-12-07T00:28:13;15.30;;;10.20;;
75885;SDS011;64561;44.018;10.144;2023-12-07T00:30:41;19.92;;;11.50;;
75885;SDS011;64561;44.018;10.144;2023-12-07T00:33:09;16.65;;;10.93;;
75885;SDS011;64561;44.018;10.144;2023-12-07T00:35:37;15.48;;;10.30;;
75885;SDS011;64561;44.018;10.144;2023-12-07T00:38:04;21.10;;;12.85;;
75885;SDS011;64561;44.018;10.144;2023-12-07T00:40:33;17.13;;;10.68;;
75885;SDS011;64561;44.018;10.144;2023-12-07T00:43:03;19.55;;;11.43;;
75885;SDS011;64561;44.018;10.144;2023-12-07T00:45:31;18.85;;;11.10;;
75885;SDS011;64561;44.018;10.144;2023-12-07T00:47:58;14.18;;;9.10;;
75885;SDS011;64561;44.018;10.144;2023-12-07T00:50:26;16.63;;;10.15;;
75885;SDS011;64561;44.018;10.144;2023-12-07T00:52:53;14.77;;;9.85;;
75885;SDS011;64561;44.018;10.144;2023-12-07T00:55:20;14.25;;;9.32;;
75885;SDS011;64561;44.018;10.144;2023-12-07T00:57:48;17.60;;;9.82;;
75885;SDS011;64561;44.018;10.144;2023-12-07T01:00:15;13.98;;;8.68;;
75885;SDS011;64561;44.018;10.144;2023-12-07T01:02:43;11.05;;;8.20;;
75885;SDS011;64561;44.018;10.144;2023-12-07T01:05:10;13.73;;;9.68;;
75885;SDS011;64561;44.018;10.144;2023-12-07T01:07:37;14.00;;;8.88;;
75885;SDS011;64561;44.018;10.144;2023-12-07T01:10:05;16.45;;;7.93;;
75885;SDS011;64561;44.018;10.144;2023-12-07T01:12:32;13.73;;;8.65;;
75885;SDS011;64561;44.018;10.144;2023-12-07T01:15:00;13.85;;;8.38;;
75885;SDS011;64561;44.018;10.144;2023-12-07T01:17:29;14.43;;;9.45;;
75885;SDS011;64561;44.018;10.144;2023-12-07T01:19:56;13.10;;;7.88;;
75885;SDS011;64561;44.018;10.144;2023-12-07T01:22:26;11.82;;;7.70;;
75885;SDS011;64561;44.018;10.144;2023-12-07T01:24:54;12.85;;;7.88;;
75885;SDS011;64561;44.018;10.144;2023-12-07T01:27:21;12.40;;;8.43;;
75885;SDS011;64561;44.018;10.144;2023-12-07T01:29:49;13.65;;;9.02;;
75885;SDS011;64561;44.018;10.144;2023-12-07T01:32:16;15.23;;;8.50;;
75885;SDS011;64561;44.018;10.144;2023-12-07T01:34:48;14.02;;;8.38;;
75885;SDS011;64561;44.018;10.144;2023-12-07T01:37:16;15.00;;;8.20;;
75885;SDS011;64561;44.018;10.144;2023-12-07T01:39:43;13.57;;;8.10;;
75885;SDS011;64561;44.018;10.144;2023-12-07T01:42:13;17.02;;;9.07;;
75885;SDS011;64561;44.018;10.144;2023-12-07T01:44:41;14.32;;;9.48;;
75885;SDS011;64561;44.018;10.144;2023-12-07T01:47:08;14.32;;;9.32;;
75885;SDS011;64561;44.018;10.144;2023-12-07T01:49:37;13.80;;;8.30;;
75885;SDS011;64561;44.018;10.144;2023-12-07T01:52:06;11.82;;;7.07;;
75885;SDS011;64561;44.018;10.144;2023-12-07T01:54:34;10.75;;;7.05;;
75885;SDS011;64561;44.018;10.144;2023-12-07T01:57:02;9.77;;;7.22;;
75885;SDS011;64561;44.018;10.144;2023-12-07T01:59:29;10.40;;;7.32;;
75885;SDS011;64561;44.018;10.144;2023-12-07T02:01:56;11.38;;;7.13;;
75885;SDS011;64561;44.018;10.144;2023-12-07T02:04:24;13.13;;;8.02;;
75885;SDS011;64561;44.018;10.144;2023-12-07T02:06:53;13.50;;;7.90;;
75885;SDS011;64561;44.018;10.144;2023-12-07T02:09:23;16.88;;;8.60;;
75885;SDS011;64561;44.018;10.144;2023-12-07T02:11:51;14.95;;;7.78;;
75885;SDS011;64561;44.018;10.144;2023-12-07T02:14:18;10.63;;;7.55;;
75885;SDS011;64561;44.018;10.144;2023-12-07T02:16:47;13.23;;;7.57;;
75885;SDS011;64561;44.018;10.144;2023-12-07T02:19:24;12.32;;;7.82;;
75885;SDS011;64561;44.018;10.144;2023-12-07T02:22:39;11.18;;;7.18;;
75885;SDS011;64561;44.018;10.144;2023-12-07T02:25:11;11.43;;;7.68;;
75885;SDS011;64561;44.018;10.144;2023-12-07T02:27:42;13.68;;;7.65;;
75885;SDS011;64561;44.018;10.144;2023-12-07T02:30:10;9.27;;;6.43;;
75885;SDS011;64561;44.018;10.144;2023-12-07T02:32:39;12.10;;;6.53;;
75885;SDS011;64561;44.018;10.144;2023-12-07T02:35:08;10.85;;;6.28;;
75885;SDS011;64561;44.018;10.144;2023-12-07T02:37:45;10.65;;;7.05;;
75885;SDS011;64561;44.018;10.144;2023-12-07T02:40:17;11.90;;;6.40;;
75885;SDS011;64561;44.018;10.144;2023-12-07T02:42:51;8.48;;;5.70;;
75885;SDS011;64561;44.018;10.144;2023-12-07T02:45:19;8.63;;;5.38;;
75885;SDS011;64561;44.018;10.144;2023-12-07T02:47:48;9.68;;;5.82;;
75885;SDS011;64561;44.018;10.144;2023-12-07T02:50:15;8.43;;;4.78;;
75885;SDS011;64561;44.018;10.144;2023-12-07T02:52:42;9.32;;;5.30;;
75885;SDS011;64561;44.018;10.144;2023-12-07T02:55:11;6.97;;;4.50;;
75885;SDS011;64561;44.018;10.144;2023-12-07T02:57:39;9.75;;;5.70;;
75885;SDS011;64561;44.018;10.144;2023-12-07T03:00:06;9.60;;;4.75;;
75885;SDS011;64561;44.018;10.144;2023-12-07T03:02:35;6.97;;;4.70;;
75885;SDS011;64561;44.018;10.144;2023-12-07T03:05:03;8.20;;;5.15;;
75885;SDS011;64561;44.018;10.144;2023-12-07T03:07:31;8.77;;;5.05;;
75885;SDS011;64561;44.018;10.144;2023-12-07T03:09:58;9.05;;;5.40;;
75885;SDS011;64561;44.018;10.144;2023-12-07T03:12:25;8.27;;;4.97;;
75885;SDS011;64561;44.018;10.144;2023-12-07T03:14:54;6.63;;;4.43;;
75885;SDS011;64561;44.018;10.144;2023-12-07T03:17:21;5.70;;;4.13;;
75885;SDS011;64561;44.018;10.144;2023-12-07T03:19:48;6.85;;;4.20;;
75885;SDS011;64561;44.018;10.144;2023-12-07T03:22:15;5.63;;;3.95;;
75885;SDS011;64561;44.018;10.144;2023-12-07T03:24:46;5.82;;;4.28;;
75885;SDS011;64561;44.018;10.144;2023-12-07T03:27:15;7.60;;;4.03;;
75885;SDS011;64561;44.018;10.144;2023-12-07T03:29:43;7.35;;;3.97;;
75885;SDS011;64561;44.018;10.144;2023-12-07T03:32:10;8.52;;;4.68;;
75885;SDS011;64561;44.018;10.144;2023-12-07T03:34:37;6.13;;;4.65;;
75885;SDS011;64561;44.018;10.144;2023-12-07T03:37:04;7.95;;;4.88;;
75885;SDS011;64561;44.018;10.144;2023-12-07T03:39:31;7.43;;;4.32;;
75885;SDS011;64561;44.018;10.144;2023-12-07T03:42:00;6.97;;;4.93;;
75885;SDS011;64561;44.018;10.144;2023-12-07T03:44:50;10.80;;;5.10;;
75885;SDS011;64561;44.018;10.144;2023-12-07T03:47:17;10.40;;;5.47;;
75885;SDS011;64561;44.018;10.144;2023-12-07T03:49:47;8.25;;;5.25;;
75885;SDS011;64561;44.018;10.144;2023-12-07T03:52:15;10.43;;;5.05;;
75885;SDS011;64561;44.018;10.144;2023-12-07T03:54:42;11.25;;;6.00;;
75885;SDS011;64561;44.018;10.144;2023-12-07T03:57:09;8.93;;;5.57;;
75885;SDS011;64561;44.018;10.144;2023-12-07T03:59:36;10.18;;;5.85;;
75885;SDS011;64561;44.018;10.144;2023-12-07T04:02:04;8.63;;;5.90;;
75885;SDS011;64561;44.018;10.144;2023-12-07T04:04:31;12.02;;;6.47;;
75885;SDS011;64561;44.018;10.144;2023-12-07T04:06:58;11.55;;;5.65;;
75885;SDS011;64561;44.018;10.144;2023-12-07T04:09:26;7.93;;;4.80;;
75885;SDS011;64561;44.018;10.144;2023-12-07T04:11:53;8.70;;;4.85;;
75885;SDS011;64561;44.018;10.144;2023-12-07T04:14:20;10.57;;;5.68;;
75885;SDS011;64561;44.018;10.144;2023-12-07T04:16:48;11.73;;;5.63;;
75885;SDS011;64561;44.018;10.144;2023-12-07T04:19:15;13.45;;;6.35;;
75885;SDS011;64561;44.018;10.144;2023-12-07T04:21:43;12.35;;;6.28;;
75885;SDS011;64561;44.018;10.144;2023-12-07T04:24:11;12.15;;;6.95;;
75885;SDS011;64561;44.018;10.144;2023-12-07T04:26:38;14.32;;;7.53;;
75885;SDS011;64561;44.018;10.144;2023-12-07T04:29:05;16.25;;;8.98;;
75885;SDS011;64561;44.018;10.144;2023-12-07T04:31:33;19.27;;;8.95;;
75885;SDS011;64561;44.018;10.144;2023-12-07T04:34:02;29.92;;;13.13;;
75885;SDS011;64561;44.018;10.144;2023-12-07T04:36:30;21.67;;;9.60;;
75885;SDS011;64561;44.018;10.144;2023-12-07T04:38:57;22.30;;;10.82;;
75885;SDS011;64561;44.018;10.144;2023-12-07T04:41:24;21.55;;;9.65;;
75885;SDS011;64561;44.018;10.144;2023-12-07T04:43:51;17.60;;;8.13;;
75885;SDS011;64561;44.018;10.144;2023-12-07T04:46:21;19.23;;;8.32;;
75885;SDS011;64561;44.018;10.144;2023-12-07T04:48:48;21.55;;;8.80;;
75885;SDS011;64561;44.018;10.144;2023-12-07T04:51:16;13.15;;;8.02;;
75885;SDS011;64561;44.018;10.144;2023-12-07T04:53:43;18.50;;;8.88;;
75885;SDS011;64561;44.018;10.144;2023-12-07T04:56:10;14.18;;;8.40;;
75885;SDS011;64561;44.018;10.144;2023-12-07T04:58:39;18.63;;;9.35;;
75885;SDS011;64561;44.018;10.144;2023-12-07T05:01:07;20.05;;;9.27;;
75885;SDS011;64561;44.018;10.144;2023-12-07T05:03:34;21.73;;;11.40;;
75885;SDS011;64561;44.018;10.144;2023-12-07T05:06:01;20.67;;;9.43;;
75885;SDS011;64561;44.018;10.144;2023-12-07T05:08:28;16.95;;;9.48;;
75885;SDS011;64561;44.018;10.144;2023-12-07T05:10:56;12.55;;;7.95;;
75885;SDS011;64561;44.018;10.144;2023-12-07T05:13:23;16.50;;;8.43;;
75885;SDS011;64561;44.018;10.144;2023-12-07T05:15:50;16.58;;;9.55;;
75885;SDS011;64561;44.018;10.144;2023-12-07T05:18:18;25.02;;;13.15;;
75885;SDS011;64561;44.018;10.144;2023-12-07T05:20:45;21.25;;;11.02;;
75885;SDS011;64561;44.018;10.144;2023-12-07T05:23:14;20.63;;;11.00;;
75885;SDS011;64561;44.018;10.144;2023-12-07T05:25:44;18.67;;;9.95;;
75885;SDS011;64561;44.018;10.144;2023-12-07T05:28:11;20.67;;;9.80;;
75885;SDS011;64561;44.018;10.144;2023-12-07T05:30:42;21.15;;;10.40;;
75885;SDS011;64561;44.018;10.144;2023-12-07T05:33:36;24.98;;;11.77;;
75885;SDS011;64561;44.018;10.144;2023-12-07T05:36:42;20.05;;;9.20;;
75885;SDS011;64561;44.018;10.144;2023-12-07T05:39:09;20.42;;;9.75;;
75885;SDS011;64561;44.018;10.144;2023-12-07T05:41:37;14.77;;;8.85;;
75885;SDS011;64561;44.018;10.144;2023-12-07T05:44:05;14.48;;;8.75;;
75885;SDS011;64561;44.018;10.144;2023-12-07T05:46:32;15.50;;;8.40;;
75885;SDS011;64561;44.018;10.144;2023-12-07T05:49:01;16.70;;;8.65;;
75885;SDS011;64561;44.018;10.144;2023-12-07T05:51:29;12.52;;;7.97;;
75885;SDS011;64561;44.018;10.144;2023-12-07T05:53:58;18.02;;;9.40;;
75885;SDS011;64561;44.018;10.144;2023-12-07T05:56:25;16.20;;;8.70;;
75885;SDS011;64561;44.018;10.144;2023-12-07T05:58:53;16.83;;;9.43;;
75885;SDS011;64561;44.018;10.144;2023-12-07T06:01:20;12.48;;;8.00;;
75885;SDS011;64561;44.018;10.144;2023-12-07T06:03:47;15.43;;;7.85;;
75885;SDS011;64561;44.018;10.144;2023-12-07T06:06:14;15.68;;;8.30;;
75885;SDS011;64561;44.018;10.144;2023-12-07T06:08:45;17.60;;;9.70;;
75885;SDS011;64561;44.018;10.144;2023-12-07T06:11:12;20.40;;;11.45;;
75885;SDS011;64561;44.018;10.144;2023-12-07T06:13:39;18.60;;;9.77;;
75885;SDS011;64561;44.018;10.144;2023-12-07T06:16:06;16.00;;;9.80;;
75885;SDS011;64561;44.018;10.144;2023-12-07T06:18:34;22.20;;;12.65;;
75885;SDS011;64561;44.018;10.144;2023-12-07T06:21:01;17.58;;;10.57;;
75885;SDS011;64561;44.018;10.144;2023-12-07T06:23:30;19.20;;;10.73;;
75885;SDS011;64561;44.018;10.144;2023-12-07T06:25:57;18.10;;;10.23;;
75885;SDS011;64561;44.018;10.144;2023-12-07T06:28:24;15.55;;;8.48;;
75885;SDS011;64561;44.018;10.144;2023-12-07T06:30:51;16.02;;;9.10;;
75885;SDS011;64561;44.018;10.144;2023-12-07T06:33:18;15.25;;;9.55;;
75885;SDS011;64561;44.018;10.144;2023-12-07T06:35:46;14.90;;;8.88;;
75885;SDS011;64561;44.018;10.144;2023-12-07T06:38:14;16.27;;;7.55;;
75885;SDS011;64561;44.018;10.144;2023-12-07T06:40:43;13.57;;;8.48;;
75885;SDS011;64561;44.018;10.144;2023-12-07T06:43:10;12.73;;;8.07;;
75885;SDS011;64561;44.018;10.144;2023-12-07T06:45:38;17.73;;;8.15;;
75885;SDS011;64561;44.018;10.144;2023-12-07T06:48:06;14.25;;;7.57;;
75885;SDS011;64561;44.018;10.144;2023-12-07T06:50:34;12.07;;;7.28;;
75885;SDS011;64561;44.018;10.144;2023-12-07T06:53:05;15.52;;;8.27;;
75885;SDS011;64561;44.018;10.144;2023-12-07T06:55:36;14.75;;;8.23;;
75885;SDS011;64561;44.018;10.144;2023-12-07T06:58:09;16.73;;;7.82;;
75885;SDS011;64561;44.018;10.144;2023-12-07T07:00:37;14.15;;;7.30;;
75885;SDS011;64561;44.018;10.144;2023-12-07T07:03:04;13.85;;;7.28;;
75885;SDS011;64561;44.018;10.144;2023-12-07T07:05:33;12.27;;;7.28;;
75885;SDS011;64561;44.018;10.144;2023-12-07T07:08:01;10.27;;;6.60;;
75885;SDS011;64561;44.018;10.144;2023-12-07T07:10:28;11.07;;;7.60;;
75885;SDS011;64561;44.018;10.144;2023-12-07T07:12:59;13.05;;;7.68;;
75885;SDS011;64561;44.018;10.144;2023-12-07T07:15:27;12.82;;;6.43;;
75885;SDS011;64561;44.018;10.144;2023-12-07T07:17:54;11.77;;;7.03;;
75885;SDS011;64561;44.018;10.144;2023-12-07T07:20:21;15.30;;;8.10;;
75885;SDS011;64561;44.018;10.144;2023-12-07T07:22:49;11.13;;;7.78;;
75885;SDS011;64561;44.018;10.144;2023-12-07T07:25:16;13.10;;;8.18;;
75885;SDS011;64561;44.018;10.144;2023-12-07T07:27:46;14.10;;;8.98;;
75885;SDS011;64561;44.018;10.144;2023-12-07T07:30:13;10.95;;;6.80;;
75885;SDS011;64561;44.018;10.144;2023-12-07T07:32:40;12.38;;;7.30;;
75885;SDS011;64561;44.018;10.144;2023-12-07T07:35:08;12.45;;;7.15;;
75885;SDS011;64561;44.018;10.144;2023-12-07T07:37:39;14.38;;;8.85;;
75885;SDS011;64561;44.018;10.144;2023-12-07T07:40:06;13.23;;;8.93;;
75885;SDS011;64561;44.018;10.144;2023-12-07T07:42:34;13.45;;;8.48;;
75885;SDS011;64561;44.018;10.144;2023-12-07T07:45:01;13.63;;;7.85;;
75885;SDS011;64561;44.018;10.144;2023-12-07T07:47:29;12.43;;;7.50;;
75885;SDS011;64561;44.018;10.144;2023-12-07T07:49:57;15.23;;;8.63;;
75885;SDS011;64561;44.018;10.144;2023-12-07T07:52:25;13.88;;;8.63;;
75885;SDS011;64561;44.018;10.144;2023-12-07T07:54:52;13.65;;;8.13;;
75885;SDS011;64561;44.018;10.144;2023-12-07T07:57:19;15.20;;;8.32;;
75885;SDS011;64561;44.018;10.144;2023-12-07T07:59:48;14.95;;;9.60;;
75885;SDS011;64561;44.018;10.144;2023-12-07T08:02:15;17.58;;;9.93;;
75885;SDS011;64561;44.018;10.144;2023-12-07T08:04:42;14.45;;;9.75;;
75885;SDS011;64561;44.018;10.144;2023-12-07T08:07:09;13.63;;;8.93;;
75885;SDS011;64561;44.018;10.144;2023-12-07T08:09:38;20.25;;;11.02;;
75885;SDS011;64561;44.018;10.144;2023-12-07T08:12:07;21.33;;;11.32;;
75885;SDS011;64561;44.018;10.144;2023-12-07T08:14:35;43.08;;;19.65;;
75885;SDS011;64561;44.018;10.144;2023-12-07T08:17:06;48.25;;;24.52;;
75885;SDS011;64561;44.018;10.144;2023-12-07T08:19:33;65.70;;;30.85;;
75885;SDS011;64561;44.018;10.144;2023-12-07T08:22:00;88.82;;;40.67;;
75885;SDS011;64561;44.018;10.144;2023-12-07T08:24:27;88.72;;;44.88;;
75885;SDS011;64561;44.018;10.144;2023-12-07T08:26:55;86.78;;;46.53;;
75885;SDS011;64561;44.018;10.144;2023-12-07T08:29:22;72.65;;;35.38;;
75885;SDS011;64561;44.018;10.144;2023-12-07T08:31:49;70.10;;;34.10;;
75885;SDS011;64561;44.018;10.144;2023-12-07T08:34:16;56.63;;;29.00;;
75885;SDS011;64561;44.018;10.144;2023-12-07T08:36:46;40.20;;;21.83;;
75885;SDS011;64561;44.018;10.144;2023-12-07T08:39:18;48.00;;;21.25;;
75885;SDS011;64561;44.018;10.144;2023-12-07T08:41:45;39.33;;;21.85;;
75885;SDS011;64561;44.018;10.144;2023-12-07T08:44:17;42.17;;;22.17;;
75885;SDS011;64561;44.018;10.144;2023-12-07T08:46:45;41.05;;;21.58;;
75885;SDS011;64561;44.018;10.144;2023-12-07T08:49:13;44.53;;;22.65;;
75885;SDS011;64561;44.018;10.144;2023-12-07T08:51:42;40.78;;;20.70;;
75885;SDS011;64561;44.018;10.144;2023-12-07T08:54:29;38.80;;;20.63;;
75885;SDS011;64561;44.018;10.144;2023-12-07T08:56:56;42.03;;;21.52;;
75885;SDS011;64561;44.018;10.144;2023-12-07T08:59:23;36.50;;;19.30;;
75885;SDS011;64561;44.018;10.144;2023-12-07T09:01:50;28.63;;;17.55;;
75885;SDS011;64561;44.018;10.144;2023-12-07T09:04:18;28.73;;;17.02;;
75885;SDS011;64561;44.018;10.144;2023-12-07T09:06:45;28.48;;;15.77;;
75885;SDS011;64561;44.018;10.144;2023-12-07T09:09:12;27.67;;;17.05;;
75885;SDS011;64561;44.018;10.144;2023-12-07T09:11:39;22.30;;;14.60;;
75885;SDS011;64561;44.018;10.144;2023-12-07T09:14:07;19.05;;;13.07;;
75885;SDS011;64561;44.018;10.144;2023-12-07T09:16:34;25.45;;;14.57;;
75885;SDS011;64561;44.018;10.144;2023-12-07T09:19:02;24.15;;;12.68;;
75885;SDS011;64561;44.018;10.144;2023-12-07T09:21:29;21.17;;;13.25;;
75885;SDS011;64561;44.018;10.144;2023-12-07T09:23:56;24.58;;;15.30;;
75885;SDS011;64561;44.018;10.144;2023-12-07T09:26:24;23.23;;;14.30;;
75885;SDS011;64561;44.018;10.144;2023-12-07T09:28:51;24.40;;;14.52;;
75885;SDS011;64561;44.018;10.144;2023-12-07T09:31:18;24.02;;;13.68;;
75885;SDS011;64561;44.018;10.144;2023-12-07T09:33:46;19.63;;;12.65;;
75885;SDS011;64561;44.018;10.144;2023-12-07T09:36:17;21.95;;;13.00;;
75885;SDS011;64561;44.018;10.144;2023-12-07T09:38:48;24.40;;;13.95;;
75885;SDS011;64561;44.018;10.144;2023-12-07T09:41:16;28.45;;;15.18;;
75885;SDS011;64561;44.018;10.144;2023-12-07T09:43:43;24.50;;;13.52;;
75885;SDS011;64561;44.018;10.144;2023-12-07T09:46:11;21.35;;;12.75;;
75885;SDS011;64561;44.018;10.144;2023-12-07T09:48:40;21.92;;;11.80;;
75885;SDS011;64561;44.018;10.144;2023-12-07T09:51:10;20.73;;;11.50;;
75885;SDS011;64561;44.018;10.144;2023-12-07T09:53:38;19.38;;;11.13;;
75885;SDS011;64561;44.018;10.144;2023-12-07T09:56:07;18.13;;;11.38;;
75885;SDS011;64561;44.018;10.144;2023-12-07T09:58:35;21.67;;;11.40;;
75885;SDS011;64561;44.018;10.144;2023-12-07T10:01:07;22.33;;;12.15;;
75885;SDS011;64561;44.018;10.144;2023-12-07T10:03:34;22.30;;;12.82;;
75885;SDS011;64561;44.018;10.144;2023-12-07T10:06:02;17.88;;;11.85;;
75885;SDS011;64561;44.018;10.144;2023-12-07T10:08:30;20.20;;;12.65;;
75885;SDS011;64561;44.018;10.144;2023-12-07T10:11:07;24.60;;;13.00;;
75885;SDS011;64561;44.018;10.144;2023-12-07T10:13:36;20.40;;;12.20;;
75885;SDS011;64561;44.018;10.144;2023-12-07T10:16:06;20.95;;;12.68;;
75885;SDS011;64561;44.018;10.144;2023-12-07T10:18:37;17.55;;;11.02;;
75885;SDS011;64561;44.018;10.144;2023-12-07T10:21:10;16.98;;;10.50;;
75885;SDS011;64561;44.018;10.144;2023-12-07T10:23:39;13.82;;;9.63;;
75885;SDS011;64561;44.018;10.144;2023-12-07T10:26:11;18.08;;;9.85;;
75885;SDS011;64561;44.018;10.144;2023-12-07T10:28:39;15.35;;;9.07;;
75885;SDS011;64561;44.018;10.144;2023-12-07T10:31:10;13.15;;;8.38;;
75885;SDS011;64561;44.018;10.144;2023-12-07T10:33:37;12.20;;;8.18;;
75885;SDS011;64561;44.018;10.144;2023-12-07T10:36:05;13.45;;;9.00;;
75885;SDS011;64561;44.018;10.144;2023-12-07T10:38:33;13.07;;;7.85;;
75885;SDS011;64561;44.018;10.144;2023-12-07T10:41:04;12.20;;;9.27;;
75885;SDS011;64561;44.018;10.144;2023-12-07T10:43:40;12.80;;;8.63;;
75885;SDS011;64561;44.018;10.144;2023-12-07T10:46:10;14.77;;;9.25;;
75885;SDS011;64561;44.018;10.144;2023-12-07T10:48:45;14.68;;;10.25;;
75885;SDS011;64561;44.018;10.144;2023-12-07T10:51:21;14.30;;;9.15;;
75885;SDS011;64561;44.018;10.144;2023-12-07T10:53:55;16.23;;;9.45;;
75885;SDS011;64561;44.018;10.144;2023-12-07T10:56:28;15.82;;;9.68;;
75885;SDS011;64561;44.018;10.144;2023-12-07T10:58:59;15.32;;;10.88;;
75885;SDS011;64561;44.018;10.144;2023-12-07T11:01:28;12.50;;;9.13;;
75885;SDS011;64561;44.018;10.144;2023-12-07T11:03:58;14.10;;;9.10;;
75885;SDS011;64561;44.018;10.144;2023-12-07T11:06:25;14.00;;;9.38;;
75885;SDS011;64561;44.018;10.144;2023-12-07T11:08:55;14.57;;;9.98;;
75885;SDS011;64561;44.018;10.144;2023-12-07T11:11:31;17.52;;;10.48;;
75885;SDS011;64561;44.018;10.144;2023-12-07T11:14:07;14.20;;;9.88;;
75885;SDS011;64561;44.018;10.144;2023-12-07T11:16:42;15.57;;;10.77;;
75885;SDS011;64561;44.018;10.144;2023-12-07T11:22:01;16.55;;;10.70;;
75885;SDS011;64561;44.018;10.144;2023-12-07T11:24:29;18.77;;;12.52;;
75885;SDS011;64561;44.018;10.144;2023-12-07T11:26:57;18.23;;;11.32;;
75885;SDS011;64561;44.018;10.144;2023-12-07T11:29:25;14.63;;;10.82;;
75885;SDS011;64561;44.018;10.144;2023-12-07T11:31:56;15.00;;;10.77;;
75885;SDS011;64561;44.018;10.144;2023-12-07T11:34:43;17.92;;;12.30;;
75885;SDS011;64561;44.018;10.144;2023-12-07T11:37:13;16.80;;;11.02;;
75885;SDS011;64561;44.018;10.144;2023-12-07T11:39:43;16.08;;;10.95;;
75885;SDS011;64561;44.018;10.144;2023-12-07T11:44:49;16.98;;;11.80;;
75885;SDS011;64561;44.018;10.144;2023-12-07T11:47:18;16.20;;;10.93;;
75885;SDS011;64561;44.018;10.144;2023-12-07T11:49:47;18.77;;;11.40;;
75885;SDS011;64561;44.018;10.144;2023-12-07T11:52:15;16.42;;;10.32;;
75885;SDS011;64561;44.018;10.144;2023-12-07T11:54:48;17.55;;;9.93;;
75885;SDS011;64561;44.018;10.144;2023-12-07T11:57:17;18.63;;;10.60;;
75885;SDS011;64561;44.018;10.144;2023-12-07T11:59:45;16.33;;;10.65;;
75885;SDS011;64561;44.018;10.144;2023-12-07T12:02:16;14.70;;;10.00;;
75885;SDS011;64561;44.018;10.144;2023-12-07T12:04:43;20.88;;;10.65;;
75885;SDS011;64561;44.018;10.144;2023-12-07T12:07:11;14.48;;;10.38;;
75885;SDS011;64561;44.018;10.144;2023-12-07T12:09:38;15.57;;;9.38;;
75885;SDS011;64561;44.018;10.144;2023-12-07T12:12:07;13.88;;;10.25;;
75885;SDS011;64561;44.018;10.144;2023-12-07T12:14:34;15.63;;;10.02;;
75885;SDS011;64561;44.018;10.144;2023-12-07T12:17:02;15.27;;;10.55;;
75885;SDS011;64561;44.018;10.144;2023-12-07T12:19:29;20.08;;;9.63;;
75885;SDS011;64561;44.018;10.144;2023-12-07T12:22:01;16.75;;;9.52;;
75885;SDS011;64561;44.018;10.144;2023-12-07T12:24:33;15.38;;;10.38;;
75885;SDS011;64561;44.018;10.144;2023-12-07T12:27:05;15.00;;;9.93;;
75885;SDS011;64561;44.018;10.144;2023-12-07T12:29:33;21.83;;;11.70;;
75885;SDS011;64561;44.018;10.144;2023-12-07T12:32:02;16.08;;;10.05;;
75885;SDS011;64561;44.018;10.144;2023-12-07T12:34:34;15.32;;;9.98;;
75885;SDS011;64561;44.018;10.144;2023-12-07T12:37:03;13.50;;;8.45;;
75885;SDS011;64561;44.018;10.144;2023-12-07T12:39:34;11.10;;;8.20;;
75885;SDS011;64561;44.018;10.144;2023-12-07T12:42:02;13.50;;;8.82;;
75885;SDS011;64561;44.018;10.144;2023-12-07T12:44:32;12.68;;;8.02;;
75885;SDS011;64561;44.018;10.144;2023-12-07T12:47:05;11.55;;;7.68;;
75885;SDS011;64561;44.018;10.144;2023-12-07T12:49:37;11.55;;;8.10;;
75885;SDS011;64561;44.018;10.144;2023-12-07T12:52:09;12.75;;;6.07;;
75885;SDS011;64561;44.018;10.144;2023-12-07T12:54:38;9.85;;;6.13;;
75885;SDS011;64561;44.018;10.144;2023-12-07T12:57:06;9.52;;;6.63;;
75885;SDS011;64561;44.018;10.144;2023-12-07T12:59:34;9.23;;;5.53;;
75885;SDS011;64561;44.018;10.144;2023-12-07T13:02:02;11.43;;;6.30;;
75885;SDS011;64561;44.018;10.144;2023-12-07T13:04:33;10.32;;;6.20;;
75885;SDS011;64561;44.018;10.144;2023-12-07T13:07:04;8.88;;;5.95;;
75885;SDS011;64561;44.018;10.144;2023-12-07T13:09:31;8.98;;;6.25;;
75885;SDS011;64561;44.018;10.144;2023-12-07T13:11:59;10.43;;;5.85;;
75885;SDS011;64561;44.018;10.144;2023-12-07T13:14:35;8.30;;;6.05;;
75885;SDS011;64561;44.018;10.144;2023-12-07T13:17:06;10.57;;;6.43;;
75885;SDS011;64561;44.018;10.144;2023-12-07T13:19:36;8.63;;;5.90;;
75885;SDS011;64561;44.018;10.144;2023-12-07T13:22:04;8.70;;;6.00;;
75885;SDS011;64561;44.018;10.144;2023-12-07T13:24:32;10.30;;;6.38;;
75885;SDS011;64561;44.018;10.144;2023-12-07T13:26:59;10.20;;;6.90;;
75885;SDS011;64561;44.018;10.144;2023-12-07T13:29:27;10.38;;;6.80;;
75885;SDS011;64561;44.018;10.144;2023-12-07T13:32:03;11.32;;;6.63;;
75885;SDS011;64561;44.018;10.144;2023-12-07T13:34:32;9.35;;;6.13;;
75885;SDS011;64561;44.018;10.144;2023-12-07T13:37:00;9.02;;;5.75;;
75885;SDS011;64561;44.018;10.144;2023-12-07T13:39:28;8.48;;;6.22;;
75885;SDS011;64561;44.018;10.144;2023-12-07T13:41:58;10.75;;;6.18;;
75885;SDS011;64561;44.018;10.144;2023-12-07T13:44:31;8.98;;;6.43;;
75885;SDS011;64561;44.018;10.144;2023-12-07T13:47:00;14.35;;;7.60;;
75885;SDS011;64561;44.018;10.144;2023-12-07T13:49:29;10.55;;;7.25;;
75885;SDS011;64561;44.018;10.144;2023-12-07T13:52:01;10.32;;;6.72;;
75885;SDS011;64561;44.018;10.144;2023-12-07T13:54:38;12.73;;;7.60;;
75885;SDS011;64561;44.018;10.144;2023-12-07T13:57:20;11.45;;;7.10;;
75885;SDS011;64561;44.018;10.144;2023-12-07T13:59:48;11.75;;;7.22;;
75885;SDS011;64561;44.018;10.144;2023-12-07T14:02:17;11.98;;;7.45;;
75885;SDS011;64561;44.018;10.144;2023-12-07T14:04:46;11.05;;;7.65;;
75885;SDS011;64561;44.018;10.144;2023-12-07T14:07:18;10.90;;;7.00;;
75885;SDS011;64561;44.018;10.144;2023-12-07T14:09:49;10.48;;;6.45;;
75885;SDS011;64561;44.018;10.144;2023-12-07T14:12:25;12.10;;;6.15;;
75885;SDS011;64561;44.018;10.144;2023-12-07T14:14:56;9.18;;;5.63;;
75885;SDS011;64561;44.018;10.144;2023-12-07T14:17:25;9.20;;;5.63;;
75885;SDS011;64561;44.018;10.144;2023-12-07T14:22:52;7.82;;;5.10;;
75885;SDS011;64561;44.018;10.144;2023-12-07T14:25:20;8.23;;;5.05;;
75885;SDS011;64561;44.018;10.144;2023-12-07T14:27:48;8.45;;;4.95;;
75885;SDS011;64561;44.018;10.144;2023-12-07T14:30:15;9.50;;;5.22;;
75885;SDS011;64561;44.018;10.144;2023-12-07T14:32:45;7.93;;;4.95;;
75885;SDS011;64561;44.018;10.144;2023-12-07T14:35:20;10.43;;;5.63;;
75885;SDS011;64561;44.018;10.144;2023-12-07T14:37:48;9.30;;;5.53;;